createdAt,value
2019-04-03T00:01:08.307Z,8.10
2019-04-03T00:03:34.687Z,8.20
2019-04-03T00:06:00.952Z,8.20
2019-04-03T00:08:27.196Z,8.30
2019-04-03T00:10:53.575Z,8.30
2019-04-03T00:13:19.844Z,8.40
2019-04-03T00:15:47.037Z,8.50
2019-04-03T00:18:15.679Z,8.50
2019-04-03T00:20:41.503Z,8.60
2019-04-03T00:23:07.778Z,8.60
2019-04-03T00:25:34.119Z,8.60
2019-04-03T00:28:00.401Z,8.50
2019-04-03T00:30:26.823Z,8.50
2019-04-03T00:32:53.894Z,8.50
2019-04-03T00:35:21.579Z,8.50
2019-04-03T00:37:48.457Z,8.50
2019-04-03T00:40:14.745Z,8.50
2019-04-03T00:42:40.992Z,8.50
2019-04-03T00:45:07.319Z,8.50
2019-04-03T00:47:33.638Z,8.40
2019-04-03T00:49:59.883Z,8.30
2019-04-03T00:52:27.588Z,8.30
2019-04-03T00:54:56.126Z,8.20
2019-04-03T00:57:22.484Z,8.20
2019-04-03T00:59:48.733Z,8.10
2019-04-03T01:02:16.427Z,8.00
2019-04-03T01:04:42.946Z,8.00
2019-04-03T01:07:09.196Z,8.00
2019-04-03T01:09:35.489Z,7.90
2019-04-03T01:12:01.877Z,7.80
2019-04-03T01:14:28.205Z,7.80
2019-04-03T01:16:54.456Z,7.70
2019-04-03T01:19:21.077Z,7.60
2019-04-03T01:21:47.349Z,7.60
2019-04-03T01:24:13.592Z,7.50
2019-04-03T01:26:40.741Z,7.50
2019-04-03T01:29:07.522Z,7.40
2019-04-03T01:31:33.838Z,7.40
2019-04-03T01:34:00.136Z,7.30
2019-04-03T01:36:26.411Z,7.30
2019-04-03T01:38:52.741Z,7.20
2019-04-03T01:41:21.268Z,7.20
2019-04-03T01:43:54.319Z,7.10
2019-04-03T01:46:20.666Z,7.10
2019-04-03T01:48:47.037Z,7.00
2019-04-03T01:51:13.322Z,6.90
2019-04-03T01:53:39.694Z,7.00
2019-04-03T01:56:05.999Z,7.00
2019-04-03T01:58:32.263Z,7.10
2019-04-03T02:00:58.542Z,7.10
2019-04-03T02:03:24.782Z,7.00
2019-04-03T02:05:51.058Z,7.00
2019-04-03T02:08:17.347Z,6.90
2019-04-03T02:10:43.596Z,6.90
2019-04-03T02:13:09.870Z,7.00
2019-04-03T02:15:36.191Z,7.00
2019-04-03T02:18:02.469Z,7.00
2019-04-03T02:20:28.761Z,7.00
2019-04-03T02:22:55.057Z,6.90
2019-04-03T02:25:21.307Z,6.90
2019-04-03T02:27:47.547Z,6.90
2019-04-03T02:30:14.508Z,6.90
2019-04-03T02:32:40.749Z,6.90
2019-04-03T02:35:08.231Z,7.00
2019-04-03T02:37:49.648Z,7.00
2019-04-03T02:40:16.160Z,7.20
2019-04-03T02:42:42.754Z,7.20
2019-04-03T02:45:09.044Z,7.10
2019-04-03T02:47:35.315Z,7.00
2019-04-03T02:50:01.926Z,7.00
2019-04-03T02:52:28.174Z,7.00
2019-04-03T02:54:54.805Z,6.90
2019-04-03T02:57:21.588Z,7.00
2019-04-03T02:59:47.865Z,7.00
2019-04-03T03:02:14.610Z,7.00
2019-04-03T03:04:40.981Z,7.00
2019-04-03T03:07:10.075Z,6.90
2019-04-03T03:09:36.373Z,6.90
2019-04-03T03:12:02.608Z,6.90
2019-04-03T03:14:28.861Z,6.90
2019-04-03T03:17:00.216Z,6.90
2019-04-03T03:19:26.495Z,7.00
2019-04-03T03:21:58.628Z,7.00
2019-04-03T03:24:29.565Z,7.00
2019-04-03T03:26:57.603Z,7.00
2019-04-03T03:29:26.357Z,7.00
2019-04-03T03:32:11.443Z,7.00
2019-04-03T03:34:46.346Z,7.10
2019-04-03T03:36:49.906Z,7.10
2019-04-03T03:39:16.841Z,7.10
2019-04-03T03:41:43.240Z,7.10
2019-04-03T03:44:11.170Z,7.10
2019-04-03T03:46:37.921Z,7.00
2019-04-03T03:49:04.330Z,7.00
2019-04-03T03:51:31.662Z,6.90
2019-04-03T03:53:58.685Z,6.90
2019-04-03T03:56:25.285Z,6.90
2019-04-03T03:58:52.077Z,6.80
2019-04-03T04:01:19.258Z,6.80
2019-04-03T04:03:45.847Z,6.80
2019-04-03T04:06:12.598Z,6.70
2019-04-03T04:08:42.637Z,6.60
2019-04-03T04:11:07.044Z,6.70
2019-04-03T04:13:33.482Z,6.70
2019-04-03T04:16:02.732Z,6.60
2019-04-03T04:18:27.939Z,6.60
2019-04-03T04:20:54.838Z,6.60
2019-04-03T04:23:24.236Z,6.60
2019-04-03T04:25:50.215Z,6.70
2019-04-03T04:28:17.050Z,6.60
2019-04-03T04:30:43.332Z,6.70
2019-04-03T04:33:09.575Z,6.70
2019-04-03T04:35:35.848Z,6.70
2019-04-03T04:38:02.133Z,6.70
2019-04-03T04:40:29.022Z,6.70
2019-04-03T04:42:56.687Z,6.70
2019-04-03T04:45:22.949Z,6.70
2019-04-03T04:47:49.187Z,6.80
2019-04-03T04:50:24.250Z,6.80
2019-04-03T04:52:49.617Z,6.80
2019-04-03T04:55:15.896Z,6.80
2019-04-03T04:57:42.277Z,6.80
2019-04-03T05:00:08.724Z,6.80
2019-04-03T05:02:34.960Z,6.80
2019-04-03T05:05:01.206Z,6.80
2019-04-03T05:07:28.850Z,6.80
2019-04-03T05:09:55.869Z,6.90
2019-04-03T05:12:22.111Z,6.90
2019-04-03T05:14:48.923Z,7.00
2019-04-03T05:17:16.330Z,7.10
2019-04-03T05:19:42.757Z,7.10
2019-04-03T05:22:09.340Z,7.10
2019-04-03T05:24:35.654Z,7.10
2019-04-03T05:27:03.310Z,7.20
2019-04-03T05:29:29.904Z,7.10
2019-04-03T05:31:56.177Z,7.20
2019-04-03T05:34:22.464Z,7.20
2019-04-03T05:36:49.170Z,7.20
2019-04-03T05:39:16.986Z,7.30
2019-04-03T05:41:43.415Z,7.40
2019-04-03T05:44:09.673Z,7.40
2019-04-03T05:46:37.607Z,7.50
2019-04-03T05:49:04.135Z,7.60
2019-04-03T05:51:30.424Z,7.70
2019-04-03T05:53:56.683Z,7.80
2019-04-03T05:56:22.935Z,8.00
2019-04-03T05:59:02.257Z,8.10
2019-04-03T06:01:28.555Z,8.20
2019-04-03T06:03:55.037Z,8.30
2019-04-03T06:06:21.638Z,8.40
2019-04-03T06:08:50.871Z,8.50
2019-04-03T06:11:16.155Z,8.60
2019-04-03T06:13:42.497Z,8.70
2019-04-03T06:16:08.776Z,8.80
2019-04-03T06:18:35.060Z,8.90
2019-04-03T06:21:01.438Z,9.00
2019-04-03T06:23:27.836Z,9.10
2019-04-03T06:25:54.516Z,9.20
2019-04-03T06:28:20.757Z,9.20
2019-04-03T06:30:47.291Z,9.30
2019-04-03T06:33:13.847Z,9.40
2019-04-03T06:35:40.211Z,9.40
2019-04-03T06:38:06.889Z,9.50
2019-04-03T06:40:35.166Z,9.50
2019-04-03T06:43:01.384Z,9.60
2019-04-03T06:45:27.767Z,9.70
2019-04-03T06:47:54.058Z,9.80
2019-04-03T06:50:20.319Z,9.80
2019-04-03T06:52:47.365Z,9.80
2019-04-03T06:55:13.757Z,9.90
2019-04-03T06:58:13.947Z,9.90
2019-04-03T07:00:40.604Z,10.00
2019-04-03T07:03:06.891Z,10.20
2019-04-03T07:05:33.163Z,10.30
2019-04-03T07:08:00.716Z,10.40
2019-04-03T07:10:27.379Z,10.40
2019-04-03T07:12:53.629Z,10.40
2019-04-03T07:15:19.942Z,10.50
2019-04-03T07:17:46.187Z,10.60
2019-04-03T07:20:15.642Z,10.70
2019-04-03T07:22:40.862Z,10.90
2019-04-03T07:25:07.115Z,11.00
2019-04-03T07:27:36.489Z,11.10
2019-04-03T07:30:06.032Z,11.20
2019-04-03T07:32:33.602Z,11.30
2019-04-03T07:35:00.066Z,11.50
2019-04-03T07:37:26.287Z,11.60
2019-04-03T07:39:52.607Z,11.70
2019-04-03T07:42:18.849Z,11.90
2019-04-03T07:44:45.423Z,12.00
2019-04-03T07:47:11.955Z,12.30
2019-04-03T07:49:40.055Z,12.50
2019-04-03T07:52:06.476Z,12.80
2019-04-03T07:54:32.770Z,12.80
2019-04-03T07:56:59.027Z,12.80
2019-04-03T07:59:25.278Z,12.70
2019-04-03T08:01:51.532Z,12.70
2019-04-03T08:04:18.017Z,12.80
2019-04-03T08:06:44.376Z,12.90
2019-04-03T08:09:11.129Z,13.10
2019-04-03T08:11:37.847Z,13.30
2019-04-03T08:14:04.126Z,13.30
2019-04-03T08:16:30.628Z,13.50
2019-04-03T08:19:20.903Z,13.80
2019-04-03T08:21:47.620Z,13.90
2019-04-03T08:24:13.993Z,13.90
2019-04-03T08:26:40.347Z,13.80
2019-04-03T08:29:06.919Z,13.90
2019-04-03T08:31:33.148Z,14.00
2019-04-03T08:34:00.029Z,14.00
2019-04-03T08:36:27.129Z,14.00
2019-04-03T08:38:53.448Z,14.00
2019-04-03T08:41:19.912Z,13.90
2019-04-03T08:43:46.217Z,14.00
2019-04-03T08:46:12.467Z,14.30
2019-04-03T08:48:38.720Z,14.40
2019-04-03T08:51:04.981Z,14.50
2019-04-03T08:53:31.384Z,14.50
2019-04-03T08:55:58.075Z,14.50
2019-04-03T08:58:25.938Z,14.50
2019-04-03T09:00:52.621Z,14.50
2019-04-03T09:03:18.895Z,14.40
2019-04-03T09:05:45.366Z,14.40
2019-04-03T09:08:11.635Z,14.40
2019-04-03T09:10:37.877Z,14.40
2019-04-03T09:13:16.040Z,14.40
2019-04-03T09:15:32.519Z,14.40
2019-04-03T09:17:58.763Z,14.40
2019-04-03T09:20:25.041Z,14.40
2019-04-03T09:22:53.721Z,14.50
2019-04-03T09:25:19.736Z,14.70
2019-04-03T09:27:45.976Z,14.70
2019-04-03T09:30:15.855Z,14.70
2019-04-03T09:32:40.397Z,14.80
2019-04-03T09:35:07.124Z,14.90
2019-04-03T09:37:37.174Z,15.00
2019-04-03T09:40:01.609Z,15.00
2019-04-03T09:42:27.861Z,15.10
2019-04-03T09:44:56.254Z,15.40
2019-04-03T09:47:22.300Z,15.60
2019-04-03T09:49:48.568Z,15.70
2019-04-03T09:52:15.170Z,15.70
2019-04-03T09:54:41.587Z,15.80
2019-04-03T09:57:08.600Z,15.90
2019-04-03T09:59:37.321Z,16.00
2019-04-03T10:02:03.523Z,16.20
2019-04-03T10:04:29.781Z,16.40
2019-04-03T10:06:56.372Z,16.40
2019-04-03T10:09:22.654Z,16.50
2019-04-03T10:11:51.490Z,16.50
2019-04-03T10:14:17.461Z,16.60
2019-04-03T10:16:43.970Z,16.60
2019-04-03T10:19:12.445Z,16.50
2019-04-03T10:21:38.680Z,16.70
2019-04-03T10:24:13.933Z,16.80
2019-04-03T10:26:40.921Z,16.90
2019-04-03T10:29:07.553Z,17.00
2019-04-03T10:31:33.949Z,17.20
2019-04-03T10:34:00.946Z,17.30
2019-04-03T10:36:28.603Z,17.40
2019-04-03T10:38:54.862Z,17.40
2019-04-03T10:41:21.114Z,17.40
2019-04-03T10:43:47.658Z,17.50
2019-04-03T10:46:14.246Z,17.40
2019-04-03T10:48:40.700Z,17.40
2019-04-03T10:51:09.289Z,17.60
2019-04-03T10:53:35.530Z,17.70
2019-04-03T10:56:01.866Z,17.90
2019-04-03T10:58:28.360Z,18.00
2019-04-03T11:00:54.718Z,18.00
2019-04-03T11:03:21.708Z,18.00
2019-04-03T11:05:48.051Z,18.10
2019-04-03T11:08:14.295Z,18.30
2019-04-03T11:10:40.644Z,18.50
2019-04-03T11:13:06.894Z,18.60
2019-04-03T11:15:33.235Z,18.70
2019-04-03T11:17:59.542Z,19.00
2019-04-03T11:20:26.185Z,19.30
2019-04-03T11:25:20.866Z,19.70
2019-04-03T11:27:47.426Z,19.90
2019-04-03T11:30:18.940Z,20.10
2019-04-03T11:30:53.735Z,19.40
2019-04-03T11:32:43.793Z,20.20
2019-04-03T11:35:10.581Z,20.40
2019-04-03T11:37:37.209Z,20.80
2019-04-03T11:40:05.803Z,20.70
2019-04-03T11:42:32.220Z,20.40
2019-04-03T11:44:58.768Z,20.50
2019-04-03T11:47:25.132Z,20.50
2019-04-03T11:49:52.513Z,20.30
2019-04-03T11:52:19.804Z,20.20
2019-04-03T11:54:46.080Z,20.30
2019-04-03T11:57:14.009Z,20.30
2019-04-03T11:59:40.729Z,20.30
2019-04-03T12:02:07.879Z,20.50
2019-04-03T12:04:34.883Z,20.60
2019-04-03T12:07:01.221Z,20.50
2019-04-03T12:09:27.540Z,20.60
2019-04-03T12:11:55.377Z,20.60
2019-04-03T12:14:21.857Z,20.30
2019-04-03T12:16:49.285Z,20.10
2019-04-03T12:19:15.920Z,20.20
2019-04-03T12:21:42.341Z,20.40
2019-04-03T12:24:08.610Z,20.50
2019-04-03T12:26:34.871Z,20.30
2019-04-03T12:29:08.344Z,20.30
2019-04-03T12:31:34.707Z,20.20
2019-04-03T12:34:05.145Z,20.00
2019-04-03T12:36:29.558Z,19.80
2019-04-03T12:38:56.724Z,19.80
2019-04-03T12:41:23.620Z,19.80
2019-04-03T12:43:50.737Z,19.70
2019-04-03T12:46:19.055Z,19.70
2019-04-03T12:48:45.541Z,19.40
2019-04-03T12:51:12.166Z,19.40
2019-04-03T12:53:38.874Z,19.50
2019-04-03T12:56:06.550Z,19.30
2019-04-03T12:58:34.417Z,19.10
2019-04-03T13:01:01.417Z,18.90
2019-04-03T13:03:27.824Z,18.90
2019-04-03T13:05:54.159Z,18.90
2019-04-03T13:08:21.775Z,18.90
2019-04-03T13:10:49.112Z,18.90
2019-04-03T13:13:16.205Z,18.90
2019-04-03T13:15:42.908Z,19.00
2019-04-03T13:18:10.307Z,19.30
2019-04-03T13:20:37.506Z,19.60
2019-04-03T13:23:04.404Z,19.60
2019-04-03T13:25:30.775Z,19.70
2019-04-03T13:27:58.371Z,19.80
2019-04-03T13:30:24.960Z,19.90
2019-04-03T13:32:58.358Z,20.20
2019-04-03T13:35:19.660Z,20.50
2019-04-03T13:37:46.487Z,20.70
2019-04-03T13:40:13.545Z,20.80
2019-04-03T13:42:39.829Z,21.00
2019-04-03T13:45:06.589Z,21.30
2019-04-03T13:47:32.832Z,21.30
2019-04-03T13:50:02.028Z,21.40
2019-04-03T13:52:39.077Z,21.50
2019-04-03T13:54:58.364Z,21.50
2019-04-03T13:57:24.600Z,21.40
2019-04-03T13:59:50.880Z,21.00
2019-04-03T14:02:19.578Z,20.80
2019-04-03T14:04:48.432Z,20.70
2019-04-03T14:07:14.407Z,20.30
2019-04-03T14:09:40.730Z,20.40
2019-04-03T14:12:07.096Z,20.60
2019-04-03T14:14:33.353Z,20.50
2019-04-03T14:17:00.420Z,20.60
2019-04-03T14:19:43.126Z,20.60
2019-04-03T14:22:02.046Z,20.60
2019-04-03T14:24:39.273Z,20.40
2019-04-03T14:26:56.555Z,20.20
2019-04-03T14:29:22.764Z,20.20
2019-04-03T14:31:49.557Z,20.10
2019-04-03T14:34:16.573Z,19.90
2019-04-03T14:36:43.632Z,20.00
2019-04-03T14:39:10.117Z,20.20
2019-04-03T14:41:36.459Z,20.10
2019-04-03T14:44:03.503Z,20.40
2019-04-03T14:46:30.321Z,20.50
2019-04-03T14:48:59.615Z,20.60
2019-04-03T14:51:24.979Z,20.80
2019-04-03T14:53:52.657Z,21.00
2019-04-03T14:56:19.569Z,21.20
2019-04-03T14:58:46.056Z,21.40
2019-04-03T15:01:13.358Z,21.60
2019-04-03T15:03:40.311Z,21.60
2019-04-03T15:06:06.895Z,21.70
2019-04-03T15:08:33.671Z,21.70
2019-04-03T15:11:02.032Z,21.50
2019-04-03T15:13:28.690Z,21.40
2019-04-03T15:15:58.895Z,21.10
2019-04-03T15:18:24.693Z,21.00
2019-04-03T15:20:51.449Z,20.90
2019-04-03T15:23:18.728Z,21.10
2019-04-03T15:25:45.435Z,21.40
2019-04-03T15:28:13.306Z,22.00
2019-04-03T15:30:41.644Z,22.60
2019-04-03T15:33:07.766Z,23.40
2019-04-03T15:35:34.460Z,24.40
2019-04-03T15:38:01.020Z,25.40
2019-04-03T15:40:27.362Z,26.10
2019-04-03T15:42:54.585Z,26.80
2019-04-03T15:45:22.436Z,27.20
2019-04-03T15:47:49.648Z,27.00
2019-04-03T15:50:16.273Z,26.20
2019-04-03T15:52:44.313Z,26.30
2019-04-03T15:55:10.948Z,26.90
2019-04-03T15:57:39.771Z,27.80
2019-04-03T16:00:14.820Z,27.70
2019-04-03T16:02:44.486Z,27.40
2019-04-03T16:05:09.725Z,26.80
2019-04-03T16:07:41.514Z,26.40
2019-04-03T16:10:08.363Z,26.40
2019-04-03T16:12:35.785Z,26.00
2019-04-03T16:15:08.281Z,25.80
2019-04-03T16:17:37.627Z,26.00
2019-04-03T16:20:04.527Z,25.70
2019-04-03T16:22:32.145Z,25.70
2019-04-03T16:24:58.891Z,25.70
2019-04-03T16:27:27.692Z,25.20
2019-04-03T16:29:53.977Z,25.20
2019-04-03T16:32:20.808Z,25.40
2019-04-03T16:34:47.524Z,25.20
2019-04-03T16:37:14.024Z,24.80
2019-04-03T16:39:40.332Z,24.20
2019-04-03T16:42:06.647Z,23.50
2019-04-03T16:44:32.925Z,22.90
2019-04-03T16:46:59.377Z,22.10
2019-04-03T16:49:28.471Z,21.50
2019-04-03T16:51:54.657Z,21.10
2019-04-03T16:54:21.248Z,21.00
2019-04-03T16:56:48.850Z,20.80
2019-04-03T16:59:15.713Z,20.50
2019-04-03T17:01:44.356Z,20.20
2019-04-03T17:04:10.486Z,19.80
2019-04-03T17:06:36.833Z,19.10
2019-04-03T17:09:06.679Z,18.50
2019-04-03T17:11:33.474Z,18.00
2019-04-03T17:14:00.078Z,17.50
2019-04-03T17:16:26.376Z,17.10
2019-04-03T17:18:52.605Z,16.80
2019-04-03T17:21:18.884Z,16.50
2019-04-03T17:23:46.175Z,16.10
2019-04-03T17:26:13.465Z,15.80
2019-04-03T17:28:41.064Z,15.60
2019-04-03T17:31:07.915Z,15.30
2019-04-03T17:33:35.629Z,15.10
2019-04-03T17:36:02.740Z,14.90
2019-04-03T17:38:31.469Z,14.80
2019-04-03T17:40:57.276Z,14.60
2019-04-03T17:43:23.544Z,14.50
2019-04-03T17:45:49.781Z,14.50
2019-04-03T17:48:16.089Z,14.40
2019-04-03T17:50:42.443Z,14.30
2019-04-03T17:53:08.911Z,14.20
2019-04-03T17:55:35.151Z,13.90
2019-04-03T17:58:01.444Z,13.70
2019-04-03T18:00:27.715Z,13.50
2019-04-03T18:02:53.958Z,13.40
2019-04-03T18:05:20.252Z,13.20
2019-04-03T18:07:46.499Z,13.10
2019-04-03T18:10:13.155Z,13.10
2019-04-03T18:12:39.658Z,13.00
2019-04-03T18:15:07.941Z,13.10
2019-04-03T18:17:34.185Z,13.00
2019-04-03T18:20:00.847Z,12.90
2019-04-03T18:22:27.115Z,12.80
2019-04-03T18:24:53.792Z,12.70
2019-04-03T18:27:20.438Z,12.60
2019-04-03T18:29:58.830Z,12.50
2019-04-03T18:32:25.111Z,12.50
2019-04-03T18:35:06.898Z,12.60
2019-04-03T18:37:32.666Z,12.60
2019-04-03T18:40:00.192Z,12.60
2019-04-03T18:42:26.441Z,12.50
2019-04-03T18:44:52.723Z,12.40
2019-04-03T18:47:18.970Z,12.30
2019-04-03T18:49:45.261Z,12.20
2019-04-03T18:52:29.593Z,12.10
2019-04-03T18:54:55.874Z,12.10
2019-04-03T18:57:22.154Z,12.00
2019-04-03T18:59:48.396Z,12.10
2019-04-03T19:02:14.645Z,12.10
2019-04-03T19:04:42.981Z,12.20
2019-04-03T19:07:09.233Z,12.20
2019-04-03T19:09:35.531Z,12.20
2019-04-03T19:12:08.295Z,12.30
2019-04-03T19:14:32.079Z,12.40
2019-04-03T19:17:01.216Z,12.50
2019-04-03T19:19:27.484Z,12.60
2019-04-03T19:21:54.621Z,12.60
2019-04-03T19:24:24.440Z,12.60
2019-04-03T19:26:49.632Z,12.70
2019-04-03T19:29:21.958Z,12.80
2019-04-03T19:31:48.165Z,13.00
2019-04-03T19:34:19.497Z,13.20
2019-04-03T19:36:43.135Z,13.20
2019-04-03T19:39:09.614Z,13.40
2019-04-03T19:41:35.958Z,13.40
2019-04-03T19:44:02.200Z,13.40
2019-04-03T19:46:28.515Z,13.40
2019-04-03T19:48:56.491Z,13.50
2019-04-03T19:51:22.980Z,13.50
2019-04-03T19:53:58.717Z,13.50
2019-04-03T19:56:17.456Z,13.40
2019-04-03T19:58:43.731Z,13.30
2019-04-03T20:01:10.301Z,13.30
2019-04-03T20:03:36.576Z,13.20
2019-04-03T20:06:02.849Z,13.20
2019-04-03T20:08:30.024Z,13.20
2019-04-03T20:10:56.984Z,13.20
2019-04-03T20:13:23.236Z,13.20
2019-04-03T20:15:49.481Z,13.10
2019-04-03T20:18:15.766Z,13.10
2019-04-03T20:20:42.006Z,13.10
2019-04-03T20:23:10.462Z,13.10
2019-04-03T20:25:36.423Z,13.10
2019-04-03T20:28:03.086Z,13.20
2019-04-03T20:30:30.892Z,13.10
2019-04-03T20:32:57.567Z,13.00
2019-04-03T20:35:27.869Z,12.90
2019-04-03T20:37:56.784Z,13.00
2019-04-03T20:40:22.259Z,12.90
2019-04-03T20:42:48.641Z,13.10
2019-04-03T20:45:14.940Z,13.00
2019-04-03T20:47:41.175Z,13.00
2019-04-03T20:50:08.360Z,13.00
2019-04-03T20:52:34.648Z,12.90
2019-04-03T20:55:00.922Z,12.80
2019-04-03T20:57:27.189Z,12.80
2019-04-03T21:00:01.831Z,12.70
2019-04-03T21:02:21.742Z,12.50
2019-04-03T21:04:48.018Z,12.50
2019-04-03T21:07:14.260Z,12.40
2019-04-03T21:09:40.538Z,12.50
2019-04-03T21:12:06.808Z,12.40
2019-04-03T21:14:33.167Z,12.30
2019-04-03T21:16:59.433Z,12.20
2019-04-03T21:19:25.681Z,12.10
2019-04-03T21:21:51.938Z,12.00
2019-04-03T21:24:18.178Z,11.90
2019-04-03T21:26:44.505Z,11.80
2019-04-03T21:29:11.837Z,11.70
2019-04-03T21:31:38.177Z,11.60
2019-04-03T21:34:04.688Z,11.50
2019-04-03T21:36:31.205Z,11.50
2019-04-03T21:38:57.819Z,11.40
2019-04-03T21:41:24.052Z,11.30
2019-04-03T21:43:50.295Z,11.20
2019-04-03T21:46:16.571Z,11.00
2019-04-03T21:48:44.613Z,11.00
2019-04-03T21:51:11.113Z,11.00
2019-04-03T21:53:37.376Z,10.90
2019-04-03T21:56:03.624Z,10.90
2019-04-03T21:58:29.895Z,10.90
2019-04-03T22:01:16.067Z,11.00
2019-04-03T22:03:42.319Z,11.00
2019-04-03T22:06:08.864Z,11.10
2019-04-03T22:08:35.137Z,11.20
2019-04-03T22:11:04.643Z,11.30
2019-04-03T22:13:30.606Z,11.30
2019-04-03T22:15:56.855Z,11.30
2019-04-03T22:18:23.786Z,11.20
2019-04-03T22:20:50.587Z,11.10
2019-04-03T22:23:17.607Z,11.10
2019-04-03T22:25:43.831Z,11.00
2019-04-03T22:28:10.091Z,10.90
2019-04-03T22:30:40.537Z,10.80
2019-04-03T22:33:06.818Z,10.90
2019-04-03T22:35:33.059Z,11.00
2019-04-03T22:37:59.362Z,11.00
2019-04-03T22:40:33.815Z,11.00
2019-04-03T22:43:00.205Z,11.00
2019-04-03T22:45:26.479Z,11.10
2019-04-03T22:47:54.284Z,11.20
2019-04-03T22:50:20.928Z,11.20
2019-04-03T22:52:49.281Z,11.20
2019-04-03T22:55:15.579Z,11.10
2019-04-03T22:57:41.858Z,11.10
2019-04-03T23:00:08.275Z,11.00
2019-04-03T23:02:34.535Z,10.90
2019-04-03T23:05:00.770Z,11.00
2019-04-03T23:07:27.046Z,10.90
2019-04-03T23:09:53.317Z,10.80
2019-04-03T23:12:19.682Z,10.80
2019-04-03T23:14:46.015Z,10.90
2019-04-03T23:17:14.015Z,10.90
2019-04-03T23:19:40.720Z,10.90
2019-04-03T23:22:06.968Z,11.00
2019-04-03T23:24:33.253Z,11.00
2019-04-03T23:27:02.406Z,10.90
2019-04-03T23:29:28.288Z,10.70
2019-04-03T23:31:54.579Z,10.60
2019-04-03T23:34:20.823Z,10.50
2019-04-03T23:36:47.090Z,10.40
2019-04-03T23:39:13.364Z,10.30
2019-04-03T23:41:40.411Z,10.30
2019-04-03T23:44:06.669Z,10.20
2019-04-03T23:46:32.942Z,10.10
2019-04-03T23:48:59.183Z,10.10
2019-04-03T23:51:27.342Z,10.00
2019-04-03T23:53:53.602Z,10.00
2019-04-03T23:56:19.895Z,10.10
2019-04-03T23:58:46.388Z,10.00
